Terminal Aerodrome Forecast
Issued by NWS

Home | Current Version | Previous Version | Text Only | Print | Product List | Glossary On
Versions: 1 2 3 4 5 6 7 8 9 10 11 12 13 14 15 16 17 18 19 20 21 22 23
000
FTUS43 KAPX 222017 AAA
TAFAPN
TAF AMD
KAPN 222017Z 2220/2318 13008KT P6SM SCT025
      TEMPO 2220/2223 BKN025
     FM230500 10008KT P6SM OVC050
     FM230800 09005KT 4SM -SN OVC015
     FM231000 08007KT 4SM -RA BR OVC007=

USA.gov is the U.S. government's official web portal to all federal, state and local government web resources and services.